Rome, Italy
Current Conditions -  °F | °C
As of 9:45 PM on Sunday 21 Dec 2014 (Local Time) from LIRA Reporting Station
Few Clouds Few Clouds  
Wind Chill: 48°   Ceiling: Unl
Heat Index: 48°   Visibility: 6mi
Dew Point: 46°   Wind: 3mph
Humidity: 93%   Direction: 130°SE
Pressure: 30.42"   Gusts: NA
Location:  41.9°N, 12.48°E
Report Text: LIRA 212045Z 13003KT 9999 FEW030 09/08 Q1030
Loading
Personal Weather Stations






























Interactive Weather Map New forecast layout! Learn more

10-Day Weather Forecast

Advertisements
Track Severe Weather on mobile